Terminal Aerodrome Forecast
Issued by NWS

Home | Current Version | Previous Version | Text Only | Print | Product List | Glossary On
Versions: 1 2 3 4 5 6 7 8 9 10 11 12 13 14 15 16 17 18 19 20 21 22 23 24 25 26 27 28 29
632
FTUS43 KDVN 091705 AAA
TAFBRL
TAF AMD
KBRL 091705Z 0917/1012 32016G24KT P6SM VCSH OVC020
      TEMPO 0917/0918 4SM -SHSN BR
     FM100000 31014KT P6SM BKN025=

USA.gov is the U.S. government's official web portal to all federal, state and local government web resources and services.